sensor_id;sensor_type;location;lat;lon;timestamp;temperature;humidity
71128;SHT30;59249;59.736;30.568;2022-12-31T00:01:27;4.33;93.47
71128;SHT30;59249;59.736;30.568;2022-12-31T00:03:57;4.25;93.08
71128;SHT30;59249;59.736;30.568;2022-12-31T00:06:30;4.18;92.83
71128;SHT30;59249;59.736;30.568;2022-12-31T00:09:03;4.14;92.92
71128;SHT30;59249;59.736;30.568;2022-12-31T00:11:34;4.05;93.02
71128;SHT30;59249;59.736;30.568;2022-12-31T00:14:04;4.09;93.49
71128;SHT30;59249;59.736;30.568;2022-12-31T00:16:35;3.99;93.37
71128;SHT30;59249;59.736;30.568;2022-12-31T00:19:08;4.03;93.33
71128;SHT30;59249;59.736;30.568;2022-12-31T00:21:39;3.94;93.38
71128;SHT30;59249;59.736;30.568;2022-12-31T00:24:10;3.90;93.57
71128;SHT30;59249;59.736;30.568;2022-12-31T00:26:39;3.97;94.13
71128;SHT30;59249;59.736;30.568;2022-12-31T00:29:09;3.97;93.91
71128;SHT30;59249;59.736;30.568;2022-12-31T00:31:38;3.97;93.79
71128;SHT30;59249;59.736;30.568;2022-12-31T00:34:06;3.99;93.47
71128;SHT30;59249;59.736;30.568;2022-12-31T00:36:38;4.02;93.27
71128;SHT30;59249;59.736;30.568;2022-12-31T00:39:09;3.89;93.29
71128;SHT30;59249;59.736;30.568;2022-12-31T00:41:38;4.02;93.58
71128;SHT30;59249;59.736;30.568;2022-12-31T00:44:10;3.96;93.29
71128;SHT30;59249;59.736;30.568;2022-12-31T00:46:39;3.96;93.33
71128;SHT30;59249;59.736;30.568;2022-12-31T00:49:07;4.02;93.12
71128;SHT30;59249;59.736;30.568;2022-12-31T00:51:37;3.98;93.51
71128;SHT30;59249;59.736;30.568;2022-12-31T00:54:06;3.99;93.50
71128;SHT30;59249;59.736;30.568;2022-12-31T00:56:36;3.98;93.34
71128;SHT30;59249;59.736;30.568;2022-12-31T00:59:05;4.00;93.20
71128;SHT30;59249;59.736;30.568;2022-12-31T01:01:36;4.00;93.96
71128;SHT30;59249;59.736;30.568;2022-12-31T01:04:09;4.15;93.91
71128;SHT30;59249;59.736;30.568;2022-12-31T01:06:41;4.24;93.94
71128;SHT30;59249;59.736;30.568;2022-12-31T01:09:11;4.14;93.86
71128;SHT30;59249;59.736;30.568;2022-12-31T01:11:40;4.18;93.66
71128;SHT30;59249;59.736;30.568;2022-12-31T01:14:11;4.31;93.65
71128;SHT30;59249;59.736;30.568;2022-12-31T01:16:44;4.35;93.49
71128;SHT30;59249;59.736;30.568;2022-12-31T01:19:20;4.26;93.15
71128;SHT30;59249;59.736;30.568;2022-12-31T01:21:51;4.45;93.38
71128;SHT30;59249;59.736;30.568;2022-12-31T01:24:21;4.37;92.96
71128;SHT30;59249;59.736;30.568;2022-12-31T01:26:49;4.34;92.55
71128;SHT30;59249;59.736;30.568;2022-12-31T01:29:18;4.33;93.15
71128;SHT30;59249;59.736;30.568;2022-12-31T01:31:47;4.34;93.15
71128;SHT30;59249;59.736;30.568;2022-12-31T01:34:16;4.44;93.15
71128;SHT30;59249;59.736;30.568;2022-12-31T01:36:44;4.44;92.82
71128;SHT30;59249;59.736;30.568;2022-12-31T01:39:15;4.44;92.61
71128;SHT30;59249;59.736;30.568;2022-12-31T01:41:46;4.43;92.64
71128;SHT30;59249;59.736;30.568;2022-12-31T01:44:51;4.39;92.45
71128;SHT30;59249;59.736;30.568;2022-12-31T01:47:32;4.37;92.29
71128;SHT30;59249;59.736;30.568;2022-12-31T01:50:10;4.30;91.90
71128;SHT30;59249;59.736;30.568;2022-12-31T01:52:44;4.33;91.93
71128;SHT30;59249;59.736;30.568;2022-12-31T01:55:19;4.47;91.95
71128;SHT30;59249;59.736;30.568;2022-12-31T01:57:52;4.37;91.78
71128;SHT30;59249;59.736;30.568;2022-12-31T02:00:22;4.32;91.55
71128;SHT30;59249;59.736;30.568;2022-12-31T02:02:51;4.31;92.12
71128;SHT30;59249;59.736;30.568;2022-12-31T02:05:26;4.30;91.78
71128;SHT30;59249;59.736;30.568;2022-12-31T02:07:57;4.42;92.06
71128;SHT30;59249;59.736;30.568;2022-12-31T02:10:27;4.40;92.01
71128;SHT30;59249;59.736;30.568;2022-12-31T02:12:56;4.36;91.77
71128;SHT30;59249;59.736;30.568;2022-12-31T02:15:41;4.38;92.12
71128;SHT30;59249;59.736;30.568;2022-12-31T02:18:28;4.38;92.06
71128;SHT30;59249;59.736;30.568;2022-12-31T02:21:30;4.42;91.87
71128;SHT30;59249;59.736;30.568;2022-12-31T02:24:40;4.40;91.04
71128;SHT30;59249;59.736;30.568;2022-12-31T02:27:28;4.47;91.40
71128;SHT30;59249;59.736;30.568;2022-12-31T02:30:13;4.31;91.51
71128;SHT30;59249;59.736;30.568;2022-12-31T02:33:07;4.32;91.36
71128;SHT30;59249;59.736;30.568;2022-12-31T02:35:47;4.25;91.16
71128;SHT30;59249;59.736;30.568;2022-12-31T02:38:21;4.42;91.32
71128;SHT30;59249;59.736;30.568;2022-12-31T02:40:52;4.21;91.29
71128;SHT30;59249;59.736;30.568;2022-12-31T02:43:21;4.27;91.54
71128;SHT30;59249;59.736;30.568;2022-12-31T02:46:07;4.35;91.29
71128;SHT30;59249;59.736;30.568;2022-12-31T02:48:46;4.12;91.49
71128;SHT30;59249;59.736;30.568;2022-12-31T02:51:32;4.25;91.58
71128;SHT30;59249;59.736;30.568;2022-12-31T02:54:29;4.23;91.67
71128;SHT30;59249;59.736;30.568;2022-12-31T02:57:09;4.25;91.78
71128;SHT30;59249;59.736;30.568;2022-12-31T02:59:49;4.13;91.84
71128;SHT30;59249;59.736;30.568;2022-12-31T03:02:40;4.22;91.76
71128;SHT30;59249;59.736;30.568;2022-12-31T03:05:12;4.21;92.35
71128;SHT30;59249;59.736;30.568;2022-12-31T03:07:44;4.18;92.00
71128;SHT30;59249;59.736;30.568;2022-12-31T03:10:13;4.30;92.18
71128;SHT30;59249;59.736;30.568;2022-12-31T03:12:43;4.23;92.07
71128;SHT30;59249;59.736;30.568;2022-12-31T03:15:18;4.28;92.25
71128;SHT30;59249;59.736;30.568;2022-12-31T03:17:53;4.18;92.32
71128;SHT30;59249;59.736;30.568;2022-12-31T03:20:28;4.24;92.01
71128;SHT30;59249;59.736;30.568;2022-12-31T03:23:18;4.19;92.09
71128;SHT30;59249;59.736;30.568;2022-12-31T03:25:48;4.21;92.01
71128;SHT30;59249;59.736;30.568;2022-12-31T03:28:18;4.26;92.29
71128;SHT30;59249;59.736;30.568;2022-12-31T03:30:53;4.18;92.22
71128;SHT30;59249;59.736;30.568;2022-12-31T03:33:24;4.19;92.31
71128;SHT30;59249;59.736;30.568;2022-12-31T03:35:54;4.32;92.38
71128;SHT30;59249;59.736;30.568;2022-12-31T03:38:23;4.23;92.07
71128;SHT30;59249;59.736;30.568;2022-12-31T03:40:52;4.22;92.26
71128;SHT30;59249;59.736;30.568;2022-12-31T03:43:21;4.23;91.98
71128;SHT30;59249;59.736;30.568;2022-12-31T03:45:51;4.28;92.20
71128;SHT30;59249;59.736;30.568;2022-12-31T03:48:23;4.24;92.37
71128;SHT30;59249;59.736;30.568;2022-12-31T03:50:51;4.23;92.39
71128;SHT30;59249;59.736;30.568;2022-12-31T03:53:20;4.30;92.18
71128;SHT30;59249;59.736;30.568;2022-12-31T03:55:50;4.20;92.14
71128;SHT30;59249;59.736;30.568;2022-12-31T03:58:20;4.15;92.09
71128;SHT30;59249;59.736;30.568;2022-12-31T04:00:50;4.23;91.79
71128;SHT30;59249;59.736;30.568;2022-12-31T04:03:18;4.31;91.80
71128;SHT30;59249;59.736;30.568;2022-12-31T04:05:53;4.23;91.38
71128;SHT30;59249;59.736;30.568;2022-12-31T04:08:22;4.23;91.06
71128;SHT30;59249;59.736;30.568;2022-12-31T04:10:51;4.16;91.00
71128;SHT30;59249;59.736;30.568;2022-12-31T04:13:19;4.14;91.15
71128;SHT30;59249;59.736;30.568;2022-12-31T04:15:49;4.32;91.41
71128;SHT30;59249;59.736;30.568;2022-12-31T04:18:18;4.37;91.71
71128;SHT30;59249;59.736;30.568;2022-12-31T04:20:47;4.37;91.63
71128;SHT30;59249;59.736;30.568;2022-12-31T04:23:17;4.16;91.65
71128;SHT30;59249;59.736;30.568;2022-12-31T04:25:46;4.22;91.42
71128;SHT30;59249;59.736;30.568;2022-12-31T04:28:14;4.20;91.45
71128;SHT30;59249;59.736;30.568;2022-12-31T04:30:43;4.19;91.41
71128;SHT30;59249;59.736;30.568;2022-12-31T04:33:12;4.24;91.32
71128;SHT30;59249;59.736;30.568;2022-12-31T04:35:40;4.31;91.23
71128;SHT30;59249;59.736;30.568;2022-12-31T04:38:09;4.24;91.13
71128;SHT30;59249;59.736;30.568;2022-12-31T04:40:39;4.21;91.47
71128;SHT30;59249;59.736;30.568;2022-12-31T04:43:28;4.24;91.39
71128;SHT30;59249;59.736;30.568;2022-12-31T04:45:56;4.24;91.65
71128;SHT30;59249;59.736;30.568;2022-12-31T04:48:25;4.20;91.84
71128;SHT30;59249;59.736;30.568;2022-12-31T04:50:55;4.24;92.07
71128;SHT30;59249;59.736;30.568;2022-12-31T04:53:25;4.20;91.93
71128;SHT30;59249;59.736;30.568;2022-12-31T04:56:03;4.16;92.42
71128;SHT30;59249;59.736;30.568;2022-12-31T04:58:32;4.14;92.24
71128;SHT30;59249;59.736;30.568;2022-12-31T05:01:01;4.13;92.66
71128;SHT30;59249;59.736;30.568;2022-12-31T05:03:30;4.00;92.78
71128;SHT30;59249;59.736;30.568;2022-12-31T05:06:00;3.88;92.61
71128;SHT30;59249;59.736;30.568;2022-12-31T05:08:30;3.83;92.58
71128;SHT30;59249;59.736;30.568;2022-12-31T05:11:00;3.74;92.95
71128;SHT30;59249;59.736;30.568;2022-12-31T05:13:30;3.82;92.87
71128;SHT30;59249;59.736;30.568;2022-12-31T05:16:00;3.79;92.81
71128;SHT30;59249;59.736;30.568;2022-12-31T05:18:29;3.63;93.24
71128;SHT30;59249;59.736;30.568;2022-12-31T05:20:58;3.64;93.26
71128;SHT30;59249;59.736;30.568;2022-12-31T05:23:27;3.53;93.46
71128;SHT30;59249;59.736;30.568;2022-12-31T05:25:56;3.50;93.62
71128;SHT30;59249;59.736;30.568;2022-12-31T05:28:35;3.47;93.63
71128;SHT30;59249;59.736;30.568;2022-12-31T05:31:04;3.44;93.69
71128;SHT30;59249;59.736;30.568;2022-12-31T05:33:33;3.44;93.80
71128;SHT30;59249;59.736;30.568;2022-12-31T05:36:01;3.38;93.51
71128;SHT30;59249;59.736;30.568;2022-12-31T05:38:30;3.35;93.90
71128;SHT30;59249;59.736;30.568;2022-12-31T05:41:03;3.33;94.22
71128;SHT30;59249;59.736;30.568;2022-12-31T05:43:34;3.44;94.10
71128;SHT30;59249;59.736;30.568;2022-12-31T05:46:04;3.57;94.13
71128;SHT30;59249;59.736;30.568;2022-12-31T05:48:33;3.60;93.78
71128;SHT30;59249;59.736;30.568;2022-12-31T05:51:01;3.70;93.77
71128;SHT30;59249;59.736;30.568;2022-12-31T05:53:30;3.67;93.98
71128;SHT30;59249;59.736;30.568;2022-12-31T05:56:00;3.68;93.84
71128;SHT30;59249;59.736;30.568;2022-12-31T05:58:29;3.72;93.63
71128;SHT30;59249;59.736;30.568;2022-12-31T06:00:59;3.63;93.42
71128;SHT30;59249;59.736;30.568;2022-12-31T06:03:28;3.67;93.68
71128;SHT30;59249;59.736;30.568;2022-12-31T06:05:57;3.73;93.41
71128;SHT30;59249;59.736;30.568;2022-12-31T06:08:28;3.72;93.46
71128;SHT30;59249;59.736;30.568;2022-12-31T06:10:57;3.72;93.46
71128;SHT30;59249;59.736;30.568;2022-12-31T06:13:25;3.81;93.46
71128;SHT30;59249;59.736;30.568;2022-12-31T06:15:54;3.79;92.96
71128;SHT30;59249;59.736;30.568;2022-12-31T06:18:24;3.72;93.02
71128;SHT30;59249;59.736;30.568;2022-12-31T06:20:53;3.70;93.14
71128;SHT30;59249;59.736;30.568;2022-12-31T06:23:21;3.78;93.04
71128;SHT30;59249;59.736;30.568;2022-12-31T06:25:50;3.83;92.90
71128;SHT30;59249;59.736;30.568;2022-12-31T06:28:18;3.81;93.33
71128;SHT30;59249;59.736;30.568;2022-12-31T06:30:47;3.80;93.41
71128;SHT30;59249;59.736;30.568;2022-12-31T06:33:17;3.78;93.23
71128;SHT30;59249;59.736;30.568;2022-12-31T06:35:47;3.71;92.94
71128;SHT30;59249;59.736;30.568;2022-12-31T06:38:16;3.67;93.07
71128;SHT30;59249;59.736;30.568;2022-12-31T06:40:44;3.65;93.07
71128;SHT30;59249;59.736;30.568;2022-12-31T06:43:13;3.64;93.15
71128;SHT30;59249;59.736;30.568;2022-12-31T06:45:42;3.72;93.17
71128;SHT30;59249;59.736;30.568;2022-12-31T06:48:11;3.80;93.31
71128;SHT30;59249;59.736;30.568;2022-12-31T06:50:39;3.79;93.23
71128;SHT30;59249;59.736;30.568;2022-12-31T06:53:09;3.77;93.26
71128;SHT30;59249;59.736;30.568;2022-12-31T06:55:39;3.84;93.43
71128;SHT30;59249;59.736;30.568;2022-12-31T06:58:12;3.73;93.39
71128;SHT30;59249;59.736;30.568;2022-12-31T07:00:51;3.70;93.39
71128;SHT30;59249;59.736;30.568;2022-12-31T07:03:35;3.83;93.35
71128;SHT30;59249;59.736;30.568;2022-12-31T07:06:11;3.77;93.41
71128;SHT30;59249;59.736;30.568;2022-12-31T07:08:51;3.78;93.28
71128;SHT30;59249;59.736;30.568;2022-12-31T07:11:28;3.75;93.43
71128;SHT30;59249;59.736;30.568;2022-12-31T07:14:10;3.79;93.30
71128;SHT30;59249;59.736;30.568;2022-12-31T07:16:55;3.76;93.11
71128;SHT30;59249;59.736;30.568;2022-12-31T07:19:38;3.69;93.40
71128;SHT30;59249;59.736;30.568;2022-12-31T07:22:15;3.77;93.18
71128;SHT30;59249;59.736;30.568;2022-12-31T07:24:46;3.85;92.89
71128;SHT30;59249;59.736;30.568;2022-12-31T07:27:31;3.70;93.03
71128;SHT30;59249;59.736;30.568;2022-12-31T07:30:06;3.76;93.17
71128;SHT30;59249;59.736;30.568;2022-12-31T07:33:00;3.78;93.21
71128;SHT30;59249;59.736;30.568;2022-12-31T07:35:40;3.77;92.82
71128;SHT30;59249;59.736;30.568;2022-12-31T07:38:22;3.82;93.04
71128;SHT30;59249;59.736;30.568;2022-12-31T07:41:06;3.86;92.84
71128;SHT30;59249;59.736;30.568;2022-12-31T07:43:55;3.90;92.97
71128;SHT30;59249;59.736;30.568;2022-12-31T07:46:32;3.93;92.77
71128;SHT30;59249;59.736;30.568;2022-12-31T07:49:07;3.86;92.89
71128;SHT30;59249;59.736;30.568;2022-12-31T07:51:38;3.90;92.84
71128;SHT30;59249;59.736;30.568;2022-12-31T07:54:07;3.83;92.77
71128;SHT30;59249;59.736;30.568;2022-12-31T07:56:43;3.98;93.73
71128;SHT30;59249;59.736;30.568;2022-12-31T07:59:24;3.88;92.93
71128;SHT30;59249;59.736;30.568;2022-12-31T08:02:05;4.05;92.55
71128;SHT30;59249;59.736;30.568;2022-12-31T08:04:48;3.91;92.07
71128;SHT30;59249;59.736;30.568;2022-12-31T08:07:32;3.95;92.83
71128;SHT30;59249;59.736;30.568;2022-12-31T08:10:12;4.00;92.39
71128;SHT30;59249;59.736;30.568;2022-12-31T08:12:48;3.94;92.45
71128;SHT30;59249;59.736;30.568;2022-12-31T08:15:19;3.94;92.40
71128;SHT30;59249;59.736;30.568;2022-12-31T08:17:56;3.99;92.40
71128;SHT30;59249;59.736;30.568;2022-12-31T08:20:26;4.07;92.01
71128;SHT30;59249;59.736;30.568;2022-12-31T08:23:18;3.87;92.18
71128;SHT30;59249;59.736;30.568;2022-12-31T08:26:22;3.98;92.04
71128;SHT30;59249;59.736;30.568;2022-12-31T08:29:10;3.96;92.24
71128;SHT30;59249;59.736;30.568;2022-12-31T08:31:54;3.99;92.49
71128;SHT30;59249;59.736;30.568;2022-12-31T08:34:33;4.02;92.51
71128;SHT30;59249;59.736;30.568;2022-12-31T08:37:11;4.10;92.21
71128;SHT30;59249;59.736;30.568;2022-12-31T08:39:58;4.07;91.88
71128;SHT30;59249;59.736;30.568;2022-12-31T08:42:36;4.13;92.25
71128;SHT30;59249;59.736;30.568;2022-12-31T08:45:17;4.09;91.82
71128;SHT30;59249;59.736;30.568;2022-12-31T08:48:00;4.05;91.70
71128;SHT30;59249;59.736;30.568;2022-12-31T08:50:31;3.99;92.09
71128;SHT30;59249;59.736;30.568;2022-12-31T08:53:00;4.00;92.08
71128;SHT30;59249;59.736;30.568;2022-12-31T08:55:30;4.04;92.06
71128;SHT30;59249;59.736;30.568;2022-12-31T08:58:18;4.06;91.84
71128;SHT30;59249;59.736;30.568;2022-12-31T09:00:57;4.05;91.86
71128;SHT30;59249;59.736;30.568;2022-12-31T09:03:41;4.10;91.92
71128;SHT30;59249;59.736;30.568;2022-12-31T09:06:22;3.99;91.09
71128;SHT30;59249;59.736;30.568;2022-12-31T09:09:02;4.02;91.51
71128;SHT30;59249;59.736;30.568;2022-12-31T09:11:50;4.01;91.17
71128;SHT30;59249;59.736;30.568;2022-12-31T09:14:44;4.04;91.13
71128;SHT30;59249;59.736;30.568;2022-12-31T09:17:43;4.02;90.75
71128;SHT30;59249;59.736;30.568;2022-12-31T09:20:23;3.93;91.33
71128;SHT30;59249;59.736;30.568;2022-12-31T09:23:09;4.01;91.31
71128;SHT30;59249;59.736;30.568;2022-12-31T09:25:48;4.07;91.08
71128;SHT30;59249;59.736;30.568;2022-12-31T09:28:36;4.04;91.13
71128;SHT30;59249;59.736;30.568;2022-12-31T09:31:14;4.11;90.93
71128;SHT30;59249;59.736;30.568;2022-12-31T09:33:52;4.09;90.62
71128;SHT30;59249;59.736;30.568;2022-12-31T09:36:29;4.14;90.92
71128;SHT30;59249;59.736;30.568;2022-12-31T09:39:09;4.07;90.53
71128;SHT30;59249;59.736;30.568;2022-12-31T09:42:22;4.13;90.17
71128;SHT30;59249;59.736;30.568;2022-12-31T09:45:50;4.08;90.69
71128;SHT30;59249;59.736;30.568;2022-12-31T09:49:06;4.00;90.13
71128;SHT30;59249;59.736;30.568;2022-12-31T09:51:47;4.16;89.97
71128;SHT30;59249;59.736;30.568;2022-12-31T09:54:46;4.05;90.87
71128;SHT30;59249;59.736;30.568;2022-12-31T09:57:38;3.91;90.66
71128;SHT30;59249;59.736;30.568;2022-12-31T10:00:14;4.00;90.57
71128;SHT30;59249;59.736;30.568;2022-12-31T10:03:01;4.05;90.27
71128;SHT30;59249;59.736;30.568;2022-12-31T10:05:55;4.07;89.72
71128;SHT30;59249;59.736;30.568;2022-12-31T10:09:00;4.21;90.26
71128;SHT30;59249;59.736;30.568;2022-12-31T10:11:50;4.05;89.97
71128;SHT30;59249;59.736;30.568;2022-12-31T10:14:43;4.03;89.97
71128;SHT30;59249;59.736;30.568;2022-12-31T10:17:29;4.06;90.03
71128;SHT30;59249;59.736;30.568;2022-12-31T10:20:27;3.96;90.43
71128;SHT30;59249;59.736;30.568;2022-12-31T10:23:28;3.94;90.18
71128;SHT30;59249;59.736;30.568;2022-12-31T10:26:30;4.08;90.34
71128;SHT30;59249;59.736;30.568;2022-12-31T10:29:22;4.09;89.97
71128;SHT30;59249;59.736;30.568;2022-12-31T10:32:11;4.07;89.85
71128;SHT30;59249;59.736;30.568;2022-12-31T10:34:54;4.05;89.93
71128;SHT30;59249;59.736;30.568;2022-12-31T10:37:31;4.02;90.24
71128;SHT30;59249;59.736;30.568;2022-12-31T10:40:22;4.07;89.41
71128;SHT30;59249;59.736;30.568;2022-12-31T10:46:47;3.95;89.83
71128;SHT30;59249;59.736;30.568;2022-12-31T10:50:03;3.91;90.20
71128;SHT30;59249;59.736;30.568;2022-12-31T10:53:39;3.98;89.90
71128;SHT30;59249;59.736;30.568;2022-12-31T11:00:01;4.02;89.66
71128;SHT30;59249;59.736;30.568;2022-12-31T11:06:55;4.09;89.89
71128;SHT30;59249;59.736;30.568;2022-12-31T11:10:08;4.02;90.00
71128;SHT30;59249;59.736;30.568;2022-12-31T11:16:27;4.02;89.49
71128;SHT30;59249;59.736;30.568;2022-12-31T11:19:14;4.16;89.10
71128;SHT30;59249;59.736;30.568;2022-12-31T11:22:03;4.05;89.25
71128;SHT30;59249;59.736;30.568;2022-12-31T11:25:02;4.04;89.52
71128;SHT30;59249;59.736;30.568;2022-12-31T11:27:59;3.95;89.18
71128;SHT30;59249;59.736;30.568;2022-12-31T11:30:42;4.02;89.89
71128;SHT30;59249;59.736;30.568;2022-12-31T11:33:29;3.98;89.80
71128;SHT30;59249;59.736;30.568;2022-12-31T11:36:14;3.98;89.59
71128;SHT30;59249;59.736;30.568;2022-12-31T11:38:50;3.94;89.58
71128;SHT30;59249;59.736;30.568;2022-12-31T11:41:32;3.99;89.70
71128;SHT30;59249;59.736;30.568;2022-12-31T11:44:17;4.07;89.79
71128;SHT30;59249;59.736;30.568;2022-12-31T11:47:06;4.03;89.66
71128;SHT30;59249;59.736;30.568;2022-12-31T11:50:02;4.02;89.42
71128;SHT30;59249;59.736;30.568;2022-12-31T11:52:51;4.02;89.96
71128;SHT30;59249;59.736;30.568;2022-12-31T11:55:42;3.93;89.93
71128;SHT30;59249;59.736;30.568;2022-12-31T11:58:15;3.98;90.07
71128;SHT30;59249;59.736;30.568;2022-12-31T12:00:55;4.02;89.80
71128;SHT30;59249;59.736;30.568;2022-12-31T12:03:24;4.05;89.68
71128;SHT30;59249;59.736;30.568;2022-12-31T12:05:56;4.09;89.83
71128;SHT30;59249;59.736;30.568;2022-12-31T12:08:25;3.95;89.62
71128;SHT30;59249;59.736;30.568;2022-12-31T12:11:04;4.04;89.88
71128;SHT30;59249;59.736;30.568;2022-12-31T12:13:33;3.85;89.79
71128;SHT30;59249;59.736;30.568;2022-12-31T12:16:06;3.93;90.22
71128;SHT30;59249;59.736;30.568;2022-12-31T12:18:43;3.92;89.42
71128;SHT30;59249;59.736;30.568;2022-12-31T12:21:15;3.96;90.19
71128;SHT30;59249;59.736;30.568;2022-12-31T12:23:55;3.97;90.20
71128;SHT30;59249;59.736;30.568;2022-12-31T12:26:39;3.91;89.98
71128;SHT30;59249;59.736;30.568;2022-12-31T12:29:11;3.96;89.82
71128;SHT30;59249;59.736;30.568;2022-12-31T12:31:41;3.81;90.08
71128;SHT30;59249;59.736;30.568;2022-12-31T12:34:24;3.86;89.80
71128;SHT30;59249;59.736;30.568;2022-12-31T12:36:54;3.87;90.17
71128;SHT30;59249;59.736;30.568;2022-12-31T12:39:25;3.93;90.44
71128;SHT30;59249;59.736;30.568;2022-12-31T12:42:06;3.92;90.51
71128;SHT30;59249;59.736;30.568;2022-12-31T12:44:35;3.77;90.39
71128;SHT30;59249;59.736;30.568;2022-12-31T12:47:13;3.83;90.62
71128;SHT30;59249;59.736;30.568;2022-12-31T12:49:46;3.90;90.62
71128;SHT30;59249;59.736;30.568;2022-12-31T12:52:45;3.85;90.36
71128;SHT30;59249;59.736;30.568;2022-12-31T12:55:37;3.82;90.38
71128;SHT30;59249;59.736;30.568;2022-12-31T12:58:21;3.91;90.50
71128;SHT30;59249;59.736;30.568;2022-12-31T13:01:03;3.87;90.94
71128;SHT30;59249;59.736;30.568;2022-12-31T13:04:23;3.86;90.64
71128;SHT30;59249;59.736;30.568;2022-12-31T13:07:17;3.90;90.43
71128;SHT30;59249;59.736;30.568;2022-12-31T13:10:12;3.97;90.85
71128;SHT30;59249;59.736;30.568;2022-12-31T13:12:52;3.91;90.82
71128;SHT30;59249;59.736;30.568;2022-12-31T13:15:49;3.88;91.23
71128;SHT30;59249;59.736;30.568;2022-12-31T13:18:40;4.03;90.75
71128;SHT30;59249;59.736;30.568;2022-12-31T13:21:39;3.90;91.00
71128;SHT30;59249;59.736;30.568;2022-12-31T13:24:30;4.05;91.27
71128;SHT30;59249;59.736;30.568;2022-12-31T13:27:12;4.03;90.80
71128;SHT30;59249;59.736;30.568;2022-12-31T13:29:46;3.98;90.11
71128;SHT30;59249;59.736;30.568;2022-12-31T13:32:20;4.06;90.68
71128;SHT30;59249;59.736;30.568;2022-12-31T13:34:56;4.13;90.26
71128;SHT30;59249;59.736;30.568;2022-12-31T13:37:36;4.07;90.51
71128;SHT30;59249;59.736;30.568;2022-12-31T13:40:20;4.08;90.18
71128;SHT30;59249;59.736;30.568;2022-12-31T13:42:56;4.11;90.71
71128;SHT30;59249;59.736;30.568;2022-12-31T13:45:34;4.07;90.31
71128;SHT30;59249;59.736;30.568;2022-12-31T13:48:15;4.09;91.05
71128;SHT30;59249;59.736;30.568;2022-12-31T13:50:56;4.09;90.08
71128;SHT30;59249;59.736;30.568;2022-12-31T13:53:35;4.06;90.60
71128;SHT30;59249;59.736;30.568;2022-12-31T13:56:13;4.18;90.39
71128;SHT30;59249;59.736;30.568;2022-12-31T13:58:49;4.14;90.13
71128;SHT30;59249;59.736;30.568;2022-12-31T14:01:25;3.99;90.95
71128;SHT30;59249;59.736;30.568;2022-12-31T14:04:08;4.00;90.97
71128;SHT30;59249;59.736;30.568;2022-12-31T14:06:46;4.09;90.82
71128;SHT30;59249;59.736;30.568;2022-12-31T14:09:22;4.11;90.64
71128;SHT30;59249;59.736;30.568;2022-12-31T14:12:15;4.02;90.69
71128;SHT30;59249;59.736;30.568;2022-12-31T14:15:01;3.99;91.00
71128;SHT30;59249;59.736;30.568;2022-12-31T14:17:40;4.10;90.69
71128;SHT30;59249;59.736;30.568;2022-12-31T14:20:22;4.08;90.60
71128;SHT30;59249;59.736;30.568;2022-12-31T14:23:04;4.04;91.13
71128;SHT30;59249;59.736;30.568;2022-12-31T14:25:41;4.16;91.05
71128;SHT30;59249;59.736;30.568;2022-12-31T14:28:18;4.08;90.49
71128;SHT30;59249;59.736;30.568;2022-12-31T14:30:55;4.18;90.75
71128;SHT30;59249;59.736;30.568;2022-12-31T14:33:48;4.10;91.03
71128;SHT30;59249;59.736;30.568;2022-12-31T14:36:32;4.10;91.18
71128;SHT30;59249;59.736;30.568;2022-12-31T14:39:20;4.18;90.67
71128;SHT30;59249;59.736;30.568;2022-12-31T14:42:16;4.10;90.94
71128;SHT30;59249;59.736;30.568;2022-12-31T14:45:02;4.09;90.92
71128;SHT30;59249;59.736;30.568;2022-12-31T14:47:45;4.09;90.62
71128;SHT30;59249;59.736;30.568;2022-12-31T14:50:24;4.10;91.24
71128;SHT30;59249;59.736;30.568;2022-12-31T14:53:06;4.18;90.75
71128;SHT30;59249;59.736;30.568;2022-12-31T14:55:37;4.14;90.80
71128;SHT30;59249;59.736;30.568;2022-12-31T14:58:21;4.11;91.19
71128;SHT30;59249;59.736;30.568;2022-12-31T15:00:57;4.05;91.42
71128;SHT30;59249;59.736;30.568;2022-12-31T15:03:35;4.09;91.29
71128;SHT30;59249;59.736;30.568;2022-12-31T15:06:37;4.13;91.24
71128;SHT30;59249;59.736;30.568;2022-12-31T15:09:22;4.05;91.94
71128;SHT30;59249;59.736;30.568;2022-12-31T15:12:17;4.03;91.40
71128;SHT30;59249;59.736;30.568;2022-12-31T15:15:28;4.13;91.21
71128;SHT30;59249;59.736;30.568;2022-12-31T15:18:25;4.11;91.61
71128;SHT30;59249;59.736;30.568;2022-12-31T15:21:38;4.13;91.22
71128;SHT30;59249;59.736;30.568;2022-12-31T15:24:18;3.91;91.71
71128;SHT30;59249;59.736;30.568;2022-12-31T15:26:53;4.05;91.82
71128;SHT30;59249;59.736;30.568;2022-12-31T15:29:28;3.99;91.78
71128;SHT30;59249;59.736;30.568;2022-12-31T15:32:02;4.06;91.79
71128;SHT30;59249;59.736;30.568;2022-12-31T15:34:35;4.08;91.59
71128;SHT30;59249;59.736;30.568;2022-12-31T15:37:25;4.09;91.71
71128;SHT30;59249;59.736;30.568;2022-12-31T15:40:15;4.13;91.26
71128;SHT30;59249;59.736;30.568;2022-12-31T15:42:49;4.12;91.40
71128;SHT30;59249;59.736;30.568;2022-12-31T15:45:26;4.05;91.65
71128;SHT30;59249;59.736;30.568;2022-12-31T15:48:07;4.03;92.04
71128;SHT30;59249;59.736;30.568;2022-12-31T15:50:38;4.09;91.92
71128;SHT30;59249;59.736;30.568;2022-12-31T15:53:09;3.94;91.68
71128;SHT30;59249;59.736;30.568;2022-12-31T15:55:50;4.04;92.21
71128;SHT30;59249;59.736;30.568;2022-12-31T15:58:24;3.98;91.74
71128;SHT30;59249;59.736;30.568;2022-12-31T16:01:03;3.99;92.16
71128;SHT30;59249;59.736;30.568;2022-12-31T16:03:44;4.10;92.26
71128;SHT30;59249;59.736;30.568;2022-12-31T16:06:17;4.06;92.21
71128;SHT30;59249;59.736;30.568;2022-12-31T16:08:48;3.99;91.97
71128;SHT30;59249;59.736;30.568;2022-12-31T16:11:18;4.05;92.30
71128;SHT30;59249;59.736;30.568;2022-12-31T16:13:51;4.02;92.36
71128;SHT30;59249;59.736;30.568;2022-12-31T16:16:23;3.99;92.55
71128;SHT30;59249;59.736;30.568;2022-12-31T16:18:56;3.99;92.80
71128;SHT30;59249;59.736;30.568;2022-12-31T16:21:30;4.05;92.45
71128;SHT30;59249;59.736;30.568;2022-12-31T16:24:05;4.04;92.26
71128;SHT30;59249;59.736;30.568;2022-12-31T16:26:43;4.02;92.49
71128;SHT30;59249;59.736;30.568;2022-12-31T16:29:15;4.09;92.29
71128;SHT30;59249;59.736;30.568;2022-12-31T16:31:46;4.05;92.66
71128;SHT30;59249;59.736;30.568;2022-12-31T16:34:20;4.07;92.06
71128;SHT30;59249;59.736;30.568;2022-12-31T16:36:58;4.03;92.26
71128;SHT30;59249;59.736;30.568;2022-12-31T16:39:30;4.15;92.34
71128;SHT30;59249;59.736;30.568;2022-12-31T16:42:16;4.30;92.12
71128;SHT30;59249;59.736;30.568;2022-12-31T16:44:46;4.18;92.22
71128;SHT30;59249;59.736;30.568;2022-12-31T16:47:20;4.12;92.38
71128;SHT30;59249;59.736;30.568;2022-12-31T16:49:58;4.07;92.05
71128;SHT30;59249;59.736;30.568;2022-12-31T16:52:34;4.18;92.01
71128;SHT30;59249;59.736;30.568;2022-12-31T16:55:07;4.18;91.96